sensor_id;sensor_type;location;lat;lon;timestamp;temperature;humidity
11246;DHT22;59870;50.106;8.580;2022-12-05T00:01:32;7.40;96.40
11246;DHT22;59870;50.106;8.580;2022-12-05T00:04:05;7.40;96.50
11246;DHT22;59870;50.106;8.580;2022-12-05T00:06:34;7.40;96.60
11246;DHT22;59870;50.106;8.580;2022-12-05T00:09:03;7.40;96.60
11246;DHT22;59870;50.106;8.580;2022-12-05T00:11:33;7.40;96.50
11246;DHT22;59870;50.106;8.580;2022-12-05T00:14:01;7.40;96.50
11246;DHT22;59870;50.106;8.580;2022-12-05T00:16:31;7.50;96.70
11246;DHT22;59870;50.106;8.580;2022-12-05T00:18:59;7.40;96.70
11246;DHT22;59870;50.106;8.580;2022-12-05T00:21:31;7.40;96.70
11246;DHT22;59870;50.106;8.580;2022-12-05T00:23:59;7.40;96.70
11246;DHT22;59870;50.106;8.580;2022-12-05T00:26:29;7.40;96.80
11246;DHT22;59870;50.106;8.580;2022-12-05T00:28:57;7.50;96.80
11246;DHT22;59870;50.106;8.580;2022-12-05T00:31:26;7.50;96.80
11246;DHT22;59870;50.106;8.580;2022-12-05T00:33:54;7.50;96.70
11246;DHT22;59870;50.106;8.580;2022-12-05T00:36:27;7.50;96.70
11246;DHT22;59870;50.106;8.580;2022-12-05T00:38:57;7.50;96.70
11246;DHT22;59870;50.106;8.580;2022-12-05T00:41:26;7.50;96.70
11246;DHT22;59870;50.106;8.580;2022-12-05T00:43:56;7.50;96.50
11246;DHT22;59870;50.106;8.580;2022-12-05T00:46:26;7.60;96.50
11246;DHT22;59870;50.106;8.580;2022-12-05T00:48:55;7.60;96.60
11246;DHT22;59870;50.106;8.580;2022-12-05T00:53:57;7.60;96.40
11246;DHT22;59870;50.106;8.580;2022-12-05T00:56:26;7.50;96.40
11246;DHT22;59870;50.106;8.580;2022-12-05T00:58:55;7.60;96.50
11246;DHT22;59870;50.106;8.580;2022-12-05T01:01:30;7.60;96.40
11246;DHT22;59870;50.106;8.580;2022-12-05T01:04:02;7.60;96.40
11246;DHT22;59870;50.106;8.580;2022-12-05T01:06:29;7.60;96.40
11246;DHT22;59870;50.106;8.580;2022-12-05T01:08:57;7.60;96.30
11246;DHT22;59870;50.106;8.580;2022-12-05T01:11:26;7.60;96.30
11246;DHT22;59870;50.106;8.580;2022-12-05T01:13:54;7.60;96.30
11246;DHT22;59870;50.106;8.580;2022-12-05T01:16:30;7.60;96.40
11246;DHT22;59870;50.106;8.580;2022-12-05T01:19:04;7.60;96.30
11246;DHT22;59870;50.106;8.580;2022-12-05T01:21:31;7.60;96.40
11246;DHT22;59870;50.106;8.580;2022-12-05T01:23:59;7.60;96.20
11246;DHT22;59870;50.106;8.580;2022-12-05T01:26:27;7.60;95.90
11246;DHT22;59870;50.106;8.580;2022-12-05T01:28:54;7.60;96.10
11246;DHT22;59870;50.106;8.580;2022-12-05T01:31:28;7.60;96.20
11246;DHT22;59870;50.106;8.580;2022-12-05T01:33:56;7.60;96.30
11246;DHT22;59870;50.106;8.580;2022-12-05T01:36:25;7.50;96.30
11246;DHT22;59870;50.106;8.580;2022-12-05T01:38:53;7.50;96.40
11246;DHT22;59870;50.106;8.580;2022-12-05T01:41:27;7.50;96.50
11246;DHT22;59870;50.106;8.580;2022-12-05T01:44:02;7.50;96.60
11246;DHT22;59870;50.106;8.580;2022-12-05T01:46:32;7.50;96.40
11246;DHT22;59870;50.106;8.580;2022-12-05T01:49:07;7.60;96.40
11246;DHT22;59870;50.106;8.580;2022-12-05T01:51:39;7.60;96.30
11246;DHT22;59870;50.106;8.580;2022-12-05T01:54:08;7.60;96.30
11246;DHT22;59870;50.106;8.580;2022-12-05T01:56:36;7.60;96.30
11246;DHT22;59870;50.106;8.580;2022-12-05T01:59:07;7.60;96.30
11246;DHT22;59870;50.106;8.580;2022-12-05T02:01:35;7.60;96.30
11246;DHT22;59870;50.106;8.580;2022-12-05T02:04:03;7.60;96.20
11246;DHT22;59870;50.106;8.580;2022-12-05T02:06:31;7.60;96.30
11246;DHT22;59870;50.106;8.580;2022-12-05T02:08:59;7.50;96.40
11246;DHT22;59870;50.106;8.580;2022-12-05T02:11:28;7.60;96.50
11246;DHT22;59870;50.106;8.580;2022-12-05T02:14:07;7.60;96.70
11246;DHT22;59870;50.106;8.580;2022-12-05T02:17:00;7.60;96.80
11246;DHT22;59870;50.106;8.580;2022-12-05T02:25:06;7.60;96.80
11246;DHT22;59870;50.106;8.580;2022-12-05T02:28:13;7.60;96.80
11246;DHT22;59870;50.106;8.580;2022-12-05T02:30:56;7.60;96.90
11246;DHT22;59870;50.106;8.580;2022-12-05T02:33:38;7.60;96.90
11246;DHT22;59870;50.106;8.580;2022-12-05T02:36:29;7.60;96.80
11246;DHT22;59870;50.106;8.580;2022-12-05T02:44:23;7.60;96.80
11246;DHT22;59870;50.106;8.580;2022-12-05T02:46:55;7.70;96.80
11246;DHT22;59870;50.106;8.580;2022-12-05T02:49:26;7.70;96.70
11246;DHT22;59870;50.106;8.580;2022-12-05T02:51:57;7.70;96.80
11246;DHT22;59870;50.106;8.580;2022-12-05T02:54:30;7.70;96.80
11246;DHT22;59870;50.106;8.580;2022-12-05T02:57:01;7.70;96.70
11246;DHT22;59870;50.106;8.580;2022-12-05T02:59:29;7.70;96.60
11246;DHT22;59870;50.106;8.580;2022-12-05T03:01:56;7.70;96.50
11246;DHT22;59870;50.106;8.580;2022-12-05T03:04:25;7.70;96.60
11246;DHT22;59870;50.106;8.580;2022-12-05T03:07:05;7.80;96.70
11246;DHT22;59870;50.106;8.580;2022-12-05T03:09:48;7.70;96.70
11246;DHT22;59870;50.106;8.580;2022-12-05T03:12:22;7.70;96.70
11246;DHT22;59870;50.106;8.580;2022-12-05T03:14:56;7.70;96.60
11246;DHT22;59870;50.106;8.580;2022-12-05T03:17:29;7.70;96.60
11246;DHT22;59870;50.106;8.580;2022-12-05T03:20:10;7.70;96.60
11246;DHT22;59870;50.106;8.580;2022-12-05T03:22:55;7.70;96.70
11246;DHT22;59870;50.106;8.580;2022-12-05T03:25:34;7.70;96.70
11246;DHT22;59870;50.106;8.580;2022-12-05T03:28:12;7.70;96.80
11246;DHT22;59870;50.106;8.580;2022-12-05T03:30:47;7.70;96.80
11246;DHT22;59870;50.106;8.580;2022-12-05T03:33:21;7.70;96.90
11246;DHT22;59870;50.106;8.580;2022-12-05T03:36:02;7.70;97.00
11246;DHT22;59870;50.106;8.580;2022-12-05T03:38:56;7.70;96.90
11246;DHT22;59870;50.106;8.580;2022-12-05T03:42:07;7.70;96.90
11246;DHT22;59870;50.106;8.580;2022-12-05T03:44:51;7.90;97.00
11246;DHT22;59870;50.106;8.580;2022-12-05T03:47:32;7.70;97.00
11246;DHT22;59870;50.106;8.580;2022-12-05T03:50:12;7.70;96.90
11246;DHT22;59870;50.106;8.580;2022-12-05T03:52:56;7.70;96.80
11246;DHT22;59870;50.106;8.580;2022-12-05T03:55:51;7.60;96.90
11246;DHT22;59870;50.106;8.580;2022-12-05T03:58:27;7.60;97.00
11246;DHT22;59870;50.106;8.580;2022-12-05T04:00:58;7.60;97.20
11246;DHT22;59870;50.106;8.580;2022-12-05T04:03:35;7.60;97.30
11246;DHT22;59870;50.106;8.580;2022-12-05T04:06:22;7.60;97.40
11246;DHT22;59870;50.106;8.580;2022-12-05T04:08:55;7.60;97.40
11246;DHT22;59870;50.106;8.580;2022-12-05T04:11:25;7.60;97.40
11246;DHT22;59870;50.106;8.580;2022-12-05T04:14:14;7.60;97.40
11246;DHT22;59870;50.106;8.580;2022-12-05T04:16:55;7.60;97.50
11246;DHT22;59870;50.106;8.580;2022-12-05T04:19:38;7.60;97.40
11246;DHT22;59870;50.106;8.580;2022-12-05T04:22:27;7.70;97.40
11246;DHT22;59870;50.106;8.580;2022-12-05T04:24:56;7.70;97.30
11246;DHT22;59870;50.106;8.580;2022-12-05T04:27:57;7.70;97.50
11246;DHT22;59870;50.106;8.580;2022-12-05T04:30:31;7.70;97.40
11246;DHT22;59870;50.106;8.580;2022-12-05T04:33:15;7.70;97.40
11246;DHT22;59870;50.106;8.580;2022-12-05T04:35:53;7.70;97.40
11246;DHT22;59870;50.106;8.580;2022-12-05T04:38:40;7.70;97.40
11246;DHT22;59870;50.106;8.580;2022-12-05T04:41:21;7.70;97.50
11246;DHT22;59870;50.106;8.580;2022-12-05T04:43:53;7.70;97.50
11246;DHT22;59870;50.106;8.580;2022-12-05T04:46:22;7.70;97.40
11246;DHT22;59870;50.106;8.580;2022-12-05T04:48:54;7.70;97.40
11246;DHT22;59870;50.106;8.580;2022-12-05T04:51:25;7.70;97.40
11246;DHT22;59870;50.106;8.580;2022-12-05T04:54:01;7.70;97.30
11246;DHT22;59870;50.106;8.580;2022-12-05T04:56:33;7.70;97.30
11246;DHT22;59870;50.106;8.580;2022-12-05T04:59:01;7.70;97.40
11246;DHT22;59870;50.106;8.580;2022-12-05T05:01:50;7.80;97.30
11246;DHT22;59870;50.106;8.580;2022-12-05T05:04:48;7.70;97.20
11246;DHT22;59870;50.106;8.580;2022-12-05T05:07:18;7.70;97.30
11246;DHT22;59870;50.106;8.580;2022-12-05T05:09:46;7.80;97.20
11246;DHT22;59870;50.106;8.580;2022-12-05T05:12:13;7.80;97.20
11246;DHT22;59870;50.106;8.580;2022-12-05T05:14:45;7.70;97.30
11246;DHT22;59870;50.106;8.580;2022-12-05T05:17:12;7.70;97.30
11246;DHT22;59870;50.106;8.580;2022-12-05T05:19:40;7.70;97.40
11246;DHT22;59870;50.106;8.580;2022-12-05T05:22:07;7.70;97.50
11246;DHT22;59870;50.106;8.580;2022-12-05T05:24:34;7.70;97.50
11246;DHT22;59870;50.106;8.580;2022-12-05T05:27:01;7.70;97.50
11246;DHT22;59870;50.106;8.580;2022-12-05T05:29:29;7.70;97.50
11246;DHT22;59870;50.106;8.580;2022-12-05T05:31:56;7.70;97.50
11246;DHT22;59870;50.106;8.580;2022-12-05T05:34:23;7.70;97.30
11246;DHT22;59870;50.106;8.580;2022-12-05T05:36:52;7.70;97.50
11246;DHT22;59870;50.106;8.580;2022-12-05T05:39:20;7.70;97.60
11246;DHT22;59870;50.106;8.580;2022-12-05T05:41:47;7.70;97.60
11246;DHT22;59870;50.106;8.580;2022-12-05T05:44:14;7.80;97.60
11246;DHT22;59870;50.106;8.580;2022-12-05T05:46:42;7.70;97.50
11246;DHT22;59870;50.106;8.580;2022-12-05T05:49:09;7.70;97.60
11246;DHT22;59870;50.106;8.580;2022-12-05T05:51:37;7.80;97.30
11246;DHT22;59870;50.106;8.580;2022-12-05T05:54:04;7.80;97.50
11246;DHT22;59870;50.106;8.580;2022-12-05T05:56:31;7.80;97.50
11246;DHT22;59870;50.106;8.580;2022-12-05T05:59:01;7.80;97.50
11246;DHT22;59870;50.106;8.580;2022-12-05T06:01:29;7.80;97.50
11246;DHT22;59870;50.106;8.580;2022-12-05T06:03:57;7.80;97.40
11246;DHT22;59870;50.106;8.580;2022-12-05T06:06:25;7.90;97.50
11246;DHT22;59870;50.106;8.580;2022-12-05T06:08:53;7.80;97.50
11246;DHT22;59870;50.106;8.580;2022-12-05T06:11:24;7.80;97.40
11246;DHT22;59870;50.106;8.580;2022-12-05T06:13:54;7.80;97.50
11246;DHT22;59870;50.106;8.580;2022-12-05T06:16:22;7.80;97.80
11246;DHT22;59870;50.106;8.580;2022-12-05T06:18:51;7.80;97.50
11246;DHT22;59870;50.106;8.580;2022-12-05T06:21:20;7.90;97.50
11246;DHT22;59870;50.106;8.580;2022-12-05T06:23:48;7.90;97.50
11246;DHT22;59870;50.106;8.580;2022-12-05T06:26:19;7.90;97.60
11246;DHT22;59870;50.106;8.580;2022-12-05T06:28:52;7.90;97.60
11246;DHT22;59870;50.106;8.580;2022-12-05T06:31:22;7.90;97.50
11246;DHT22;59870;50.106;8.580;2022-12-05T06:33:50;8.20;97.60
11246;DHT22;59870;50.106;8.580;2022-12-05T06:36:24;7.80;97.40
11246;DHT22;59870;50.106;8.580;2022-12-05T06:38:52;7.80;97.50
11246;DHT22;59870;50.106;8.580;2022-12-05T06:41:20;7.90;97.30
11246;DHT22;59870;50.106;8.580;2022-12-05T06:43:48;7.90;97.60
11246;DHT22;59870;50.106;8.580;2022-12-05T06:46:15;7.90;97.60
11246;DHT22;59870;50.106;8.580;2022-12-05T06:48:44;7.90;97.50
11246;DHT22;59870;50.106;8.580;2022-12-05T06:51:16;7.80;97.40
11246;DHT22;59870;50.106;8.580;2022-12-05T06:53:46;7.60;97.30
11246;DHT22;59870;50.106;8.580;2022-12-05T06:56:15;7.90;97.60
11246;DHT22;59870;50.106;8.580;2022-12-05T06:58:48;7.90;97.70
11246;DHT22;59870;50.106;8.580;2022-12-05T07:01:18;7.60;97.50
11246;DHT22;59870;50.106;8.580;2022-12-05T07:05:26;7.90;97.60
11246;DHT22;59870;50.106;8.580;2022-12-05T07:10:55;7.90;97.60
11246;DHT22;59870;50.106;8.580;2022-12-05T07:13:26;7.90;97.60
11246;DHT22;59870;50.106;8.580;2022-12-05T07:15:54;7.90;97.60
11246;DHT22;59870;50.106;8.580;2022-12-05T07:18:21;8.00;97.70
11246;DHT22;59870;50.106;8.580;2022-12-05T07:20:57;8.00;97.60
11246;DHT22;59870;50.106;8.580;2022-12-05T07:23:43;8.00;97.50
11246;DHT22;59870;50.106;8.580;2022-12-05T07:26:17;8.00;97.60
11246;DHT22;59870;50.106;8.580;2022-12-05T07:28:45;8.00;97.60
11246;DHT22;59870;50.106;8.580;2022-12-05T07:31:17;8.00;97.50
11246;DHT22;59870;50.106;8.580;2022-12-05T07:33:45;8.00;97.50
11246;DHT22;59870;50.106;8.580;2022-12-05T07:36:17;8.20;97.60
11246;DHT22;59870;50.106;8.580;2022-12-05T07:38:45;8.00;97.40
11246;DHT22;59870;50.106;8.580;2022-12-05T07:41:27;8.00;97.30
11246;DHT22;59870;50.106;8.580;2022-12-05T07:43:56;8.00;97.50
11246;DHT22;59870;50.106;8.580;2022-12-05T07:46:25;8.00;97.50
11246;DHT22;59870;50.106;8.580;2022-12-05T07:48:53;8.00;97.60
11246;DHT22;59870;50.106;8.580;2022-12-05T07:51:21;8.00;97.50
11246;DHT22;59870;50.106;8.580;2022-12-05T07:53:48;7.90;97.50
11246;DHT22;59870;50.106;8.580;2022-12-05T07:56:18;8.00;97.60
11246;DHT22;59870;50.106;8.580;2022-12-05T07:58:47;7.90;97.40
11246;DHT22;59870;50.106;8.580;2022-12-05T08:01:23;7.90;97.40
11246;DHT22;59870;50.106;8.580;2022-12-05T08:03:53;7.90;97.40
11246;DHT22;59870;50.106;8.580;2022-12-05T08:06:23;7.90;97.40
11246;DHT22;59870;50.106;8.580;2022-12-05T08:08:52;7.90;97.50
11246;DHT22;59870;50.106;8.580;2022-12-05T08:11:31;8.00;97.60
11246;DHT22;59870;50.106;8.580;2022-12-05T08:14:03;8.00;97.70
11246;DHT22;59870;50.106;8.580;2022-12-05T08:16:31;7.90;97.70
11246;DHT22;59870;50.106;8.580;2022-12-05T08:19:07;8.00;97.80
11246;DHT22;59870;50.106;8.580;2022-12-05T08:21:35;7.90;97.60
11246;DHT22;59870;50.106;8.580;2022-12-05T08:24:06;8.00;97.70
11246;DHT22;59870;50.106;8.580;2022-12-05T08:26:34;8.00;97.70
11246;DHT22;59870;50.106;8.580;2022-12-05T08:29:10;8.00;97.80
11246;DHT22;59870;50.106;8.580;2022-12-05T08:31:44;8.00;97.80
11246;DHT22;59870;50.106;8.580;2022-12-05T08:34:16;8.00;97.70
11246;DHT22;59870;50.106;8.580;2022-12-05T08:36:48;8.00;97.70
11246;DHT22;59870;50.106;8.580;2022-12-05T08:39:33;8.00;97.60
11246;DHT22;59870;50.106;8.580;2022-12-05T08:42:06;8.10;97.70
11246;DHT22;59870;50.106;8.580;2022-12-05T08:44:43;8.10;97.60
11246;DHT22;59870;50.106;8.580;2022-12-05T08:47:34;7.70;97.70
11246;DHT22;59870;50.106;8.580;2022-12-05T08:50:29;8.10;97.70
11246;DHT22;59870;50.106;8.580;2022-12-05T08:52:56;8.00;97.60
11246;DHT22;59870;50.106;8.580;2022-12-05T08:55:24;8.00;97.40
11246;DHT22;59870;50.106;8.580;2022-12-05T08:57:52;8.00;97.60
11246;DHT22;59870;50.106;8.580;2022-12-05T09:00:19;8.00;97.60
11246;DHT22;59870;50.106;8.580;2022-12-05T09:02:49;8.00;97.80
11246;DHT22;59870;50.106;8.580;2022-12-05T09:05:18;8.00;97.80
11246;DHT22;59870;50.106;8.580;2022-12-05T09:07:58;8.00;97.70
11246;DHT22;59870;50.106;8.580;2022-12-05T09:10:26;8.10;97.80
11246;DHT22;59870;50.106;8.580;2022-12-05T09:12:53;8.10;97.90
11246;DHT22;59870;50.106;8.580;2022-12-05T09:15:21;8.10;98.00
11246;DHT22;59870;50.106;8.580;2022-12-05T09:17:51;8.10;98.00
11246;DHT22;59870;50.106;8.580;2022-12-05T09:20:18;8.10;98.00
11246;DHT22;59870;50.106;8.580;2022-12-05T09:22:45;8.10;98.00
11246;DHT22;59870;50.106;8.580;2022-12-05T09:25:13;8.10;98.10
11246;DHT22;59870;50.106;8.580;2022-12-05T09:27:41;8.10;97.90
11246;DHT22;59870;50.106;8.580;2022-12-05T09:30:09;8.20;98.00
11246;DHT22;59870;50.106;8.580;2022-12-05T09:32:37;8.20;98.10
11246;DHT22;59870;50.106;8.580;2022-12-05T09:35:07;8.30;98.00
11246;DHT22;59870;50.106;8.580;2022-12-05T09:37:39;8.30;98.00
11246;DHT22;59870;50.106;8.580;2022-12-05T09:40:15;8.30;98.00
11246;DHT22;59870;50.106;8.580;2022-12-05T09:43:05;8.30;98.10
11246;DHT22;59870;50.106;8.580;2022-12-05T09:45:50;8.10;98.00
11246;DHT22;59870;50.106;8.580;2022-12-05T09:48:25;8.70;97.90
11246;DHT22;59870;50.106;8.580;2022-12-05T09:51:02;8.70;97.50
11246;DHT22;59870;50.106;8.580;2022-12-05T09:53:36;8.50;97.50
11246;DHT22;59870;50.106;8.580;2022-12-05T09:58:47;8.40;97.60
11246;DHT22;59870;50.106;8.580;2022-12-05T10:01:21;8.50;97.80
11246;DHT22;59870;50.106;8.580;2022-12-05T10:10:23;8.80;97.90
11246;DHT22;59870;50.106;8.580;2022-12-05T10:13:19;8.50;97.80
11246;DHT22;59870;50.106;8.580;2022-12-05T10:15:58;8.60;97.80
11246;DHT22;59870;50.106;8.580;2022-12-05T10:18:46;8.60;97.80
11246;DHT22;59870;50.106;8.580;2022-12-05T10:21:23;8.60;97.80
11246;DHT22;59870;50.106;8.580;2022-12-05T10:24:22;8.60;97.80
11246;DHT22;59870;50.106;8.580;2022-12-05T10:27:03;8.60;97.80
11246;DHT22;59870;50.106;8.580;2022-12-05T10:29:32;8.60;97.70
11246;DHT22;59870;50.106;8.580;2022-12-05T10:32:35;8.40;97.60
11246;DHT22;59870;50.106;8.580;2022-12-05T10:37:59;8.70;97.70
11246;DHT22;59870;50.106;8.580;2022-12-05T10:40:33;8.70;97.60
11246;DHT22;59870;50.106;8.580;2022-12-05T10:43:04;8.70;97.50
11246;DHT22;59870;50.106;8.580;2022-12-05T10:45:41;8.70;97.60
11246;DHT22;59870;50.106;8.580;2022-12-05T10:48:12;8.80;97.70
11246;DHT22;59870;50.106;8.580;2022-12-05T10:50:41;8.70;97.60
11246;DHT22;59870;50.106;8.580;2022-12-05T10:53:16;9.00;97.80
11246;DHT22;59870;50.106;8.580;2022-12-05T10:55:45;8.80;97.80
11246;DHT22;59870;50.106;8.580;2022-12-05T10:58:34;8.80;97.70
11246;DHT22;59870;50.106;8.580;2022-12-05T11:01:09;8.90;97.50
11246;DHT22;59870;50.106;8.580;2022-12-05T11:03:41;8.90;97.70
11246;DHT22;59870;50.106;8.580;2022-12-05T11:06:30;9.00;97.70
11246;DHT22;59870;50.106;8.580;2022-12-05T11:09:03;9.00;97.70
11246;DHT22;59870;50.106;8.580;2022-12-05T11:11:33;9.00;97.60
11246;DHT22;59870;50.106;8.580;2022-12-05T11:14:01;9.00;97.60
11246;DHT22;59870;50.106;8.580;2022-12-05T11:16:31;9.00;97.50
11246;DHT22;59870;50.106;8.580;2022-12-05T11:21:49;9.00;97.40
11246;DHT22;59870;50.106;8.580;2022-12-05T11:26:51;9.10;97.10
11246;DHT22;59870;50.106;8.580;2022-12-05T11:29:37;9.10;97.10
11246;DHT22;59870;50.106;8.580;2022-12-05T11:32:37;9.00;97.10
11246;DHT22;59870;50.106;8.580;2022-12-05T11:35:21;9.10;97.30
11246;DHT22;59870;50.106;8.580;2022-12-05T11:38:01;9.00;97.20
11246;DHT22;59870;50.106;8.580;2022-12-05T11:40:34;9.10;96.90
11246;DHT22;59870;50.106;8.580;2022-12-05T11:52:32;9.10;97.10
11246;DHT22;59870;50.106;8.580;2022-12-05T11:55:14;9.00;97.10
11246;DHT22;59870;50.106;8.580;2022-12-05T12:01:10;9.00;97.40
11246;DHT22;59870;50.106;8.580;2022-12-05T12:03:58;9.10;97.50
11246;DHT22;59870;50.106;8.580;2022-12-05T12:07:17;9.10;97.50
11246;DHT22;59870;50.106;8.580;2022-12-05T12:19:21;9.10;97.50
11246;DHT22;59870;50.106;8.580;2022-12-05T12:22:18;9.10;97.50
11246;DHT22;59870;50.106;8.580;2022-12-05T12:25:30;9.10;97.60
11246;DHT22;59870;50.106;8.580;2022-12-05T12:28:07;9.10;97.50
11246;DHT22;59870;50.106;8.580;2022-12-05T12:42:05;9.10;97.50
11246;DHT22;59870;50.106;8.580;2022-12-05T12:50:46;9.10;97.50
11246;DHT22;59870;50.106;8.580;2022-12-05T12:53:30;9.10;97.40
11246;DHT22;59870;50.106;8.580;2022-12-05T12:59:01;9.20;97.60
11246;DHT22;59870;50.106;8.580;2022-12-05T13:02:10;9.10;97.50
11246;DHT22;59870;50.106;8.580;2022-12-05T13:04:59;8.80;97.40
11246;DHT22;59870;50.106;8.580;2022-12-05T13:07:40;8.90;97.60
11246;DHT22;59870;50.106;8.580;2022-12-05T13:16:06;9.10;97.70
11246;DHT22;59870;50.106;8.580;2022-12-05T13:18:37;9.20;97.60
11246;DHT22;59870;50.106;8.580;2022-12-05T13:21:07;9.20;97.50
11246;DHT22;59870;50.106;8.580;2022-12-05T13:23:53;9.20;97.30
11246;DHT22;59870;50.106;8.580;2022-12-05T13:26:23;9.40;97.40
11246;DHT22;59870;50.106;8.580;2022-12-05T13:29:05;9.20;97.30
11246;DHT22;59870;50.106;8.580;2022-12-05T13:31:36;9.20;97.50
11246;DHT22;59870;50.106;8.580;2022-12-05T13:37:44;9.20;97.80
11246;DHT22;59870;50.106;8.580;2022-12-05T13:40:35;9.20;97.40
11246;DHT22;59870;50.106;8.580;2022-12-05T13:43:25;9.20;97.50
11246;DHT22;59870;50.106;8.580;2022-12-05T13:46:01;9.20;97.60
11246;DHT22;59870;50.106;8.580;2022-12-05T13:48:33;9.20;97.60
11246;DHT22;59870;50.106;8.580;2022-12-05T13:51:21;9.20;97.70
11246;DHT22;59870;50.106;8.580;2022-12-05T13:54:02;9.30;97.70
11246;DHT22;59870;50.106;8.580;2022-12-05T14:07:46;9.30;98.00
11246;DHT22;59870;50.106;8.580;2022-12-05T14:12:56;9.20;98.20
11246;DHT22;59870;50.106;8.580;2022-12-05T14:15:32;9.30;98.20
11246;DHT22;59870;50.106;8.580;2022-12-05T14:18:37;9.30;98.20
11246;DHT22;59870;50.106;8.580;2022-12-05T14:26:26;9.40;98.30
11246;DHT22;59870;50.106;8.580;2022-12-05T14:30:01;9.30;98.30
11246;DHT22;59870;50.106;8.580;2022-12-05T14:37:57;9.40;98.20
11246;DHT22;59870;50.106;8.580;2022-12-05T14:40:39;9.40;98.20
11246;DHT22;59870;50.106;8.580;2022-12-05T14:43:18;9.40;98.10
11246;DHT22;59870;50.106;8.580;2022-12-05T14:50:48;9.30;98.20
11246;DHT22;59870;50.106;8.580;2022-12-05T14:56:01;9.30;98.30
11246;DHT22;59870;50.106;8.580;2022-12-05T14:58:34;9.30;98.50
11246;DHT22;59870;50.106;8.580;2022-12-05T15:03:49;9.30;98.30
11246;DHT22;59870;50.106;8.580;2022-12-05T15:06:22;9.30;98.60
11246;DHT22;59870;50.106;8.580;2022-12-05T15:08:54;9.40;98.50
11246;DHT22;59870;50.106;8.580;2022-12-05T15:11:43;9.30;98.60
11246;DHT22;59870;50.106;8.580;2022-12-05T15:14:18;9.30;98.60
11246;DHT22;59870;50.106;8.580;2022-12-05T15:16:49;9.40;98.70
11246;DHT22;59870;50.106;8.580;2022-12-05T15:19:25;9.40;98.70
11246;DHT22;59870;50.106;8.580;2022-12-05T15:21:59;9.40;98.80
11246;DHT22;59870;50.106;8.580;2022-12-05T15:24:37;9.30;98.70
11246;DHT22;59870;50.106;8.580;2022-12-05T15:27:06;9.40;98.70
11246;DHT22;59870;50.106;8.580;2022-12-05T15:29:39;9.40;98.70
11246;DHT22;59870;50.106;8.580;2022-12-05T15:34:45;9.40;98.80
11246;DHT22;59870;50.106;8.580;2022-12-05T15:37:39;9.40;98.70
11246;DHT22;59870;50.106;8.580;2022-12-05T15:40:13;9.40;98.70
11246;DHT22;59870;50.106;8.580;2022-12-05T15:42:53;9.40;98.70
11246;DHT22;59870;50.106;8.580;2022-12-05T15:45:30;9.90;98.90
11246;DHT22;59870;50.106;8.580;2022-12-05T15:50:43;9.50;98.70
11246;DHT22;59870;50.106;8.580;2022-12-05T15:53:25;9.50;99.00
11246;DHT22;59870;50.106;8.580;2022-12-05T15:55:56;9.50;98.60
11246;DHT22;59870;50.106;8.580;2022-12-05T15:58:53;9.50;98.70
11246;DHT22;59870;50.106;8.580;2022-12-05T16:01:25;9.50;98.70
11246;DHT22;59870;50.106;8.580;2022-12-05T16:04:06;9.50;98.70
11246;DHT22;59870;50.106;8.580;2022-12-05T16:06:49;9.50;98.70
11246;DHT22;59870;50.106;8.580;2022-12-05T16:09:20;9.50;98.80
11246;DHT22;59870;50.106;8.580;2022-12-05T16:15:00;9.50;98.80
11246;DHT22;59870;50.106;8.580;2022-12-05T16:17:38;9.50;98.70
11246;DHT22;59870;50.106;8.580;2022-12-05T16:22:46;9.50;98.70
11246;DHT22;59870;50.106;8.580;2022-12-05T16:25:16;9.50;98.70
11246;DHT22;59870;50.106;8.580;2022-12-05T16:30:31;9.60;98.70
11246;DHT22;59870;50.106;8.580;2022-12-05T16:33:22;9.60;98.70
11246;DHT22;59870;50.106;8.580;2022-12-05T16:35:48;9.80;98.80
11246;DHT22;59870;50.106;8.580;2022-12-05T16:38:22;9.60;98.80
11246;DHT22;59870;50.106;8.580;2022-12-05T16:43:45;9.60;98.90
11246;DHT22;59870;50.106;8.580;2022-12-05T16:48:42;9.50;98.80
11246;DHT22;59870;50.106;8.580;2022-12-05T16:53:40;9.60;98.90
11246;DHT22;59870;50.106;8.580;2022-12-05T16:56:23;9.60;99.00
11246;DHT22;59870;50.106;8.580;2022-12-05T16:58:51;9.60;99.00
11246;DHT22;59870;50.106;8.580;2022-12-05T17:01:22;9.60;98.80
11246;DHT22;59870;50.106;8.580;2022-12-05T17:03:50;9.60;98.90
11246;DHT22;59870;50.106;8.580;2022-12-05T17:06:21;9.60;99.00
11246;DHT22;59870;50.106;8.580;2022-12-05T17:08:51;9.60;99.00
11246;DHT22;59870;50.106;8.580;2022-12-05T17:13:46;9.60;98.90
11246;DHT22;59870;50.106;8.580;2022-12-05T17:16:16;9.60;98.90
11246;DHT22;59870;50.106;8.580;2022-12-05T17:18:44;9.80;98.90
11246;DHT22;59870;50.106;8.580;2022-12-05T17:21:15;9.70;98.90
11246;DHT22;59870;50.106;8.580;2022-12-05T17:23:47;9.90;99.00
11246;DHT22;59870;50.106;8.580;2022-12-05T17:26:18;9.70;98.90
11246;DHT22;59870;50.106;8.580;2022-12-05T17:28:47;9.90;98.90
11246;DHT22;59870;50.106;8.580;2022-12-05T17:31:20;9.70;98.80
11246;DHT22;59870;50.106;8.580;2022-12-05T17:33:49;9.70;98.80
11246;DHT22;59870;50.106;8.580;2022-12-05T17:36:17;9.70;98.80
11246;DHT22;59870;50.106;8.580;2022-12-05T17:38:48;9.70;98.80
11246;DHT22;59870;50.106;8.580;2022-12-05T17:41:18;10.20;98.40
11246;DHT22;59870;50.106;8.580;2022-12-05T17:43:46;9.80;98.70
11246;DHT22;59870;50.106;8.580;2022-12-05T17:46:19;9.70;98.60
11246;DHT22;59870;50.106;8.580;2022-12-05T17:48:48;9.70;98.70
11246;DHT22;59870;50.106;8.580;2022-12-05T17:51:17;9.70;98.70
11246;DHT22;59870;50.106;8.580;2022-12-05T17:53:45;9.70;98.60
11246;DHT22;59870;50.106;8.580;2022-12-05T17:56:15;10.10;98.30
11246;DHT22;59870;50.106;8.580;2022-12-05T17:58:42;9.80;98.30
11246;DHT22;59870;50.106;8.580;2022-12-05T18:01:14;9.70;98.50
11246;DHT22;59870;50.106;8.580;2022-12-05T18:03:42;9.70;98.60
11246;DHT22;59870;50.106;8.580;2022-12-05T18:06:13;9.70;98.60
11246;DHT22;59870;50.106;8.580;2022-12-05T18:08:41;9.70;98.70
11246;DHT22;59870;50.106;8.580;2022-12-05T18:11:13;10.00;98.30
11246;DHT22;59870;50.106;8.580;2022-12-05T18:13:40;9.70;98.70
11246;DHT22;59870;50.106;8.580;2022-12-05T18:16:08;9.70;98.60
11246;DHT22;59870;50.106;8.580;2022-12-05T18:18:35;9.70;98.80
11246;DHT22;59870;50.106;8.580;2022-12-05T18:21:12;9.70;98.80
11246;DHT22;59870;50.106;8.580;2022-12-05T18:23:40;9.70;98.60
11246;DHT22;59870;50.106;8.580;2022-12-05T18:26:08;9.70;98.80
11246;DHT22;59870;50.106;8.580;2022-12-05T18:28:37;9.70;98.80
11246;DHT22;59870;50.106;8.580;2022-12-05T18:31:10;9.70;98.60
11246;DHT22;59870;50.106;8.580;2022-12-05T18:33:38;9.70;98.70
11246;DHT22;59870;50.106;8.580;2022-12-05T18:36:11;9.70;98.60
11246;DHT22;59870;50.106;8.580;2022-12-05T18:38:40;9.70;98.70
11246;DHT22;59870;50.106;8.580;2022-12-05T18:41:09;9.70;98.60
11246;DHT22;59870;50.106;8.580;2022-12-05T18:43:36;9.70;98.50
11246;DHT22;59870;50.106;8.580;2022-12-05T18:46:06;9.60;98.50
11246;DHT22;59870;50.106;8.580;2022-12-05T18:48:34;9.60;98.20
11246;DHT22;59870;50.106;8.580;2022-12-05T18:51:14;9.60;98.40
11246;DHT22;59870;50.106;8.580;2022-12-05T18:53:43;9.60;98.30
11246;DHT22;59870;50.106;8.580;2022-12-05T18:56:26;9.70;98.30